Time;durP1;ratioP1;P1;durP2;ratioP2;P2;SDS_P1;SDS_P2;PMS_P1;PMS_P2;Temp;Humidity;BMP_temperature;BMP_pressure;BME280_temperature;BME280_humidity;BME280_pressure;Samples;Min_cycle;Max_cycle;Signal;HPM_P1;HPM_P2
2021/03/22 08:16:41;;;;;;;25.92;4.00;;;6.40;66.50;;;;;;5141260;27;28522;-58
2021/03/22 08:19:51;;;;;;;21.08;4.47;;;6.50;66.90;;;;;;5142281;27;27444;-57
2021/03/22 08:22:54;;;;;;;19.02;3.90;;;6.70;66.60;;;;;;5141253;27;27328;-59
2021/03/22 08:25:47;;;;;;;18.45;3.70;;;6.90;66.30;;;;;;5127268;27;27435;-58
2021/03/22 08:28:40;;;;;;;17.98;3.88;;;7.00;65.90;;;;;;5124804;27;27487;-58
2021/03/22 08:31:45;;;;;;;16.25;4.25;;;7.20;65.60;;;;;;5139035;27;27343;-58
2021/03/22 08:34:51;;;;;;;16.33;4.20;;;7.30;65.00;;;;;;5142528;27;27355;-59
2021/03/22 08:37:44;;;;;;;19.92;4.63;;;7.50;64.70;;;;;;5142454;27;27540;-59
2021/03/22 08:40:40;;;;;;;16.10;4.30;;;7.60;64.50;;;;;;5142071;27;27385;-59
2021/03/22 08:43:35;;;;;;;14.38;4.25;;;7.70;64.30;;;;;;5142370;27;27386;-59
2021/03/22 08:46:57;;;;;;;21.58;4.53;;;7.90;64.00;;;;;;5141965;27;27678;-59
2021/03/22 08:50:04;;;;;;;14.25;3.63;;;8.00;63.70;;;;;;5142237;27;27397;-59
2021/03/22 08:53:18;;;;;;;13.10;3.63;;;8.10;63.10;;;;;;5128337;27;27366;-59
2021/03/22 08:56:05;;;;;;;14.07;4.10;;;8.20;62.60;;;;;;5125972;27;27481;-60
2021/03/22 08:58:50;;;;;;;9.27;3.38;;;8.30;62.50;;;;;;5123434;27;27396;-59
2021/03/22 09:01:35;;;;;;;13.82;3.78;;;8.50;62.10;;;;;;5126650;27;27407;-59
2021/03/22 09:04:20;;;;;;;14.02;3.50;;;8.70;61.70;;;;;;5142027;27;27390;-59
2021/03/22 09:07:10;;;;;;;14.05;3.10;;;8.90;61.10;;;;;;5141948;27;27493;-59
2021/03/22 09:10:36;;;;;;;13.27;3.13;;;9.20;60.50;;;;;;5141998;27;27387;-59
2021/03/22 09:13:35;;;;;;;12.90;3.10;;;9.50;59.90;;;;;;5141397;27;27373;-59
2021/03/22 09:16:23;;;;;;;13.77;3.75;;;9.80;59.30;;;;;;5140924;27;27419;-59
2021/03/22 09:19:43;;;;;;;7.75;2.28;;;9.90;58.90;;;;;;5125964;27;27400;-59
2021/03/22 09:22:27;;;;;;;10.40;2.53;;;10.20;58.50;;;;;;5141119;27;27384;-59
2021/03/22 09:25:12;;;;;;;14.73;2.67;;;10.40;57.90;;;;;;5141696;27;27386;-59
2021/03/22 09:28:18;;;;;;;7.70;2.67;;;10.60;57.60;;;;;;5111976;27;27336;-59
2021/03/22 09:31:05;;;;;;;10.90;2.70;;;10.70;57.40;;;;;;5127778;27;27393;-59
2021/03/22 09:33:58;;;;;;;5.30;2.60;;;10.70;57.20;;;;;;5124725;27;27571;-59
2021/03/22 09:36:46;;;;;;;8.18;4.25;;;10.70;57.40;;;;;;5127481;27;27410;-59
2021/03/22 09:39:44;;;;;;;8.35;2.83;;;10.70;57.20;;;;;;5112377;27;27884;-59
2021/03/22 09:42:29;;;;;;;9.68;2.17;;;10.70;57.20;;;;;;5123885;27;27465;-59
2021/03/22 09:45:19;;;;;;;8.18;2.42;;;10.70;57.10;;;;;;5127243;27;27461;-59
2021/03/22 09:48:16;;;;;;;10.30;2.88;;;10.90;56.90;;;;;;5112468;27;27401;-60
2021/03/22 09:51:02;;;;;;;11.63;2.20;;;11.00;56.70;;;;;;5127387;27;27427;-59
2021/03/22 09:53:57;;;;;;;7.88;1.88;;;11.10;56.60;;;;;;5127379;27;27469;-60
2021/03/22 09:56:43;;;;;;;8.57;2.22;;;11.30;56.20;;;;;;5109552;27;27481;-59
2021/03/22 09:59:38;;;;;;;6.68;2.13;;;11.50;55.90;;;;;;5127008;27;27409;-59
2021/03/22 10:02:45;;;;;;;9.68;2.05;;;11.60;55.60;;;;;;5109731;27;27466;-59
2021/03/22 10:05:53;;;;;;;7.45;1.90;;;11.60;55.60;;;;;;5127139;27;27522;-60
2021/03/22 10:08:38;;;;;;;4.15;1.90;;;11.60;55.60;;;;;;5126837;27;27389;-59
2021/03/22 10:11:25;;;;;;;11.18;2.10;;;11.40;55.40;;;;;;5126932;27;27370;-59
2021/03/22 10:14:33;;;;;;;9.25;2.17;;;11.30;55.40;;;;;;5111699;27;27872;-59
2021/03/22 10:17:25;;;;;;;5.35;1.58;;;11.10;55.60;;;;;;5111480;27;27516;-59
2021/03/22 10:20:42;;;;;;;10.82;2.33;;;11.10;55.70;;;;;;5127004;27;27375;-59
2021/03/22 10:23:37;;;;;;;5.45;1.52;;;11.10;55.80;;;;;;5126736;27;27399;-59
2021/03/22 10:26:28;;;;;;;9.20;2.10;;;11.20;55.80;;;;;;5126433;27;28053;-59
2021/03/22 10:29:22;;;;;;;7.78;1.55;;;11.30;55.60;;;;;;5126507;27;27343;-59
2021/03/22 10:32:22;;;;;;;9.30;2.03;;;11.40;55.30;;;;;;5126819;27;27330;-60
2021/03/22 10:35:14;;;;;;;5.90;2.17;;;11.50;55.00;;;;;;5126102;27;27460;-59
2021/03/22 10:37:59;;;;;;;6.75;1.70;;;11.70;54.60;;;;;;5125283;27;27385;-60
2021/03/22 10:40:44;;;;;;;6.15;1.63;;;11.90;54.40;;;;;;5093678;27;27479;-60
2021/03/22 10:43:34;;;;;;;8.05;2.40;;;12.20;53.90;;;;;;5126621;27;27385;-60
2021/03/22 10:46:20;;;;;;;6.32;1.45;;;12.40;53.50;;;;;;5126619;27;27391;-60
2021/03/22 10:49:13;;;;;;;5.78;1.65;;;12.60;52.90;;;;;;5126604;27;27471;-60
2021/03/22 10:52:01;;;;;;;4.93;1.67;;;12.80;52.40;;;;;;5111186;27;27485;-61
2021/03/22 10:54:46;;;;;;;5.82;1.50;;;13.10;52.20;;;;;;5126131;27;27416;-60
2021/03/22 10:57:36;;;;;;;5.25;1.73;;;13.20;52.20;;;;;;5126561;27;27378;-60
2021/03/22 11:00:41;;;;;;;4.43;1.70;;;13.30;52.00;;;;;;5126138;27;27929;-60
2021/03/22 11:03:26;;;;;;;5.45;2.17;;;13.30;51.90;;;;;;5123028;27;27410;-60
2021/03/22 11:06:14;;;;;;;8.65;2.03;;;13.30;52.00;;;;;;5111255;27;27487;-59
2021/03/22 11:09:00;;;;;;;2.50;1.23;;;13.10;51.70;;;;;;5110831;27;27477;-60
2021/03/22 11:11:45;;;;;;;3.92;1.40;;;13.00;52.20;;;;;;5126244;27;27415;-60
2021/03/22 11:14:30;;;;;;;2.20;1.23;;;12.80;52.30;;;;;;5125357;27;27432;-60
2021/03/22 11:17:16;;;;;;;4.18;1.50;;;12.70;52.50;;;;;;5110975;27;27494;-60
2021/03/22 11:20:10;;;;;;;5.15;1.90;;;12.50;52.70;;;;;;5110770;27;27426;-60
2021/03/22 11:23:18;;;;;;;7.32;2.00;;;12.30;53.00;;;;;;5125769;27;27461;-60
2021/03/22 11:26:13;;;;;;;4.40;1.48;;;12.20;53.20;;;;;;5125683;27;27508;-60
2021/03/22 11:29:19;;;;;;;5.57;1.70;;;12.00;53.50;;;;;;5125389;27;27343;-60
2021/03/22 11:32:05;;;;;;;4.10;1.60;;;11.80;53.30;;;;;;5125856;27;27323;-60
2021/03/22 11:34:50;;;;;;;7.10;1.73;;;11.70;53.60;;;;;;5106966;27;27427;-59
2021/03/22 11:37:34;;;;;;;4.75;1.65;;;11.60;53.70;;;;;;5106925;27;27321;-60
2021/03/22 11:40:25;;;;;;;7.75;1.83;;;11.60;53.80;;;;;;5125330;27;27340;-59
2021/03/22 11:43:31;;;;;;;4.75;1.48;;;11.60;53.80;;;;;;5111184;27;27426;-60
2021/03/22 11:46:23;;;;;;;5.38;1.40;;;11.60;53.60;;;;;;5109975;27;27336;-60
2021/03/22 11:49:37;;;;;;;4.30;1.45;;;11.70;53.50;;;;;;5124941;27;27520;-60
2021/03/22 11:52:26;;;;;;;5.07;1.42;;;11.90;53.00;;;;;;5125243;27;27543;-60
2021/03/22 11:55:33;;;;;;;3.90;1.23;;;12.20;52.20;;;;;;5124554;27;27599;-60
2021/03/22 11:58:32;;;;;;;4.30;1.30;;;12.60;51.80;;;;;;5125304;27;27941;-59
2021/03/22 12:01:22;;;;;;;4.30;1.35;;;12.90;51.40;;;;;;5125194;27;27489;-60
2021/03/22 12:04:07;;;;;;;3.55;1.27;;;13.00;51.10;;;;;;5125109;27;27339;-59
2021/03/22 12:07:03;;;;;;;7.88;2.05;;;13.10;51.10;;;;;;5121161;27;27443;-60
2021/03/22 12:09:47;;;;;;;3.25;1.60;;;13.10;51.20;;;;;;5125160;27;27326;-60
2021/03/22 12:12:32;;;;;;;4.65;1.40;;;13.10;51.40;;;;;;5125191;27;27615;-60
2021/03/22 12:15:17;;;;;;;5.72;1.45;;;13.00;51.50;;;;;;5124454;27;27360;-60
2021/03/22 12:18:06;;;;;;;5.90;1.70;;;13.00;51.70;;;;;;5125247;27;27380;-60
2021/03/22 12:20:51;;;;;;;3.45;1.20;;;12.80;51.40;;;;;;5125091;27;27458;-59
2021/03/22 12:23:35;;;;;;;6.57;1.52;;;12.80;51.60;;;;;;5124629;27;27430;-59
2021/03/22 12:26:20;;;;;;;7.82;1.63;;;12.70;51.70;;;;;;5124846;27;27327;-59
2021/03/22 12:29:05;;;;;;;6.13;1.35;;;12.90;51.70;;;;;;5121652;27;27380;-60
2021/03/22 12:31:50;;;;;;;6.25;1.40;;;13.00;51.40;;;;;;5124994;27;28065;-60
2021/03/22 12:34:34;;;;;;;4.20;1.23;;;13.10;50.80;;;;;;5124865;27;27427;-59
2021/03/22 12:37:26;;;;;;;5.32;1.40;;;13.20;50.20;;;;;;5125031;27;27354;-60
2021/03/22 12:40:12;;;;;;;3.60;1.55;;;13.40;49.90;;;;;;5124924;27;27489;-59
2021/03/22 12:42:58;;;;;;;3.30;1.40;;;13.50;49.90;;;;;;5124968;27;27392;-60
2021/03/22 12:45:42;;;;;;;6.88;1.77;;;13.60;49.80;;;;;;5106168;27;27376;-60
2021/03/22 12:48:27;;;;;;;8.00;1.48;;;13.60;49.80;;;;;;5124558;27;27339;-59
2021/03/22 12:51:11;;;;;;;2.95;1.30;;;13.70;49.90;;;;;;5124242;27;27332;-60
2021/03/22 12:53:55;;;;;;;3.65;1.60;;;13.70;49.90;;;;;;5124624;27;27420;-59
2021/03/22 12:56:40;;;;;;;6.93;1.58;;;13.70;50.10;;;;;;5105937;27;27606;-60
2021/03/22 12:59:30;;;;;;;8.00;1.90;;;13.60;50.20;;;;;;5109306;27;27474;-60
2021/03/22 13:02:18;;;;;;;5.20;0.90;;;13.50;49.90;;;;;;5126436;27;27405;-60
2021/03/22 13:05:12;;;;;;;4.03;0.95;;;13.50;50.10;;;;;;5127915;27;27427;-58
2021/03/22 13:07:57;;;;;;;3.63;1.17;;;13.40;50.10;;;;;;5112778;27;27490;-59
2021/03/22 13:10:41;;;;;;;2.20;1.10;;;13.40;50.30;;;;;;5128148;27;27414;-59
2021/03/22 13:13:26;;;;;;;4.32;1.40;;;13.30;50.40;;;;;;5127862;27;27429;-59
2021/03/22 13:16:18;;;;;;;3.45;1.25;;;13.10;50.70;;;;;;5127086;27;27575;-59
2021/03/22 13:19:02;;;;;;;5.00;2.63;;;13.00;49.80;;;;;;5113284;27;27405;-59
2021/03/22 13:21:48;;;;;;;7.05;2.08;;;12.80;49.80;;;;;;5127833;27;27363;-59
2021/03/22 13:24:32;;;;;;;5.68;1.73;;;12.70;50.00;;;;;;5124197;27;27339;-59
2021/03/22 13:27:17;;;;;;;7.75;2.15;;;12.50;50.20;;;;;;5127430;27;27339;-59
2021/03/22 13:30:03;;;;;;;7.72;1.63;;;12.40;50.50;;;;;;5127464;27;27374;-58
2021/03/22 13:32:48;;;;;;;4.80;2.08;;;12.50;50.90;;;;;;5112067;27;27442;-59
2021/03/22 13:35:33;;;;;;;4.10;1.92;;;12.50;50.90;;;;;;5127383;27;27394;-59
2021/03/22 13:38:19;;;;;;;5.63;1.85;;;12.60;51.10;;;;;;5108868;27;27346;-59
2021/03/22 13:41:05;;;;;;;6.07;1.90;;;12.60;51.10;;;;;;5127500;27;27397;-59
2021/03/22 13:43:49;;;;;;;6.10;1.80;;;12.60;51.00;;;;;;5112113;27;27399;-59
2021/03/22 13:46:34;;;;;;;4.60;1.65;;;12.50;51.00;;;;;;5124208;27;27340;-58
2021/03/22 13:49:19;;;;;;;9.70;2.28;;;12.40;51.10;;;;;;5127334;27;27319;-59
2021/03/22 13:52:05;;;;;;;6.32;2.08;;;12.30;51.40;;;;;;5127473;27;27428;-59
2021/03/22 13:54:49;;;;;;;6.80;2.28;;;12.20;51.70;;;;;;5127443;27;27377;-59
2021/03/22 13:57:34;;;;;;;7.28;2.20;;;12.00;52.00;;;;;;5127114;27;27348;-59
2021/03/22 14:00:18;;;;;;;7.30;2.30;;;11.80;52.40;;;;;;5126963;27;27398;-59
2021/03/22 14:03:04;;;;;;;6.53;1.95;;;11.60;52.90;;;;;;5108864;27;27344;-59
2021/03/22 14:05:49;;;;;;;6.18;2.50;;;11.40;53.90;;;;;;5127079;27;27358;-59
2021/03/22 14:08:33;;;;;;;6.07;2.22;;;11.30;53.80;;;;;;5123932;27;27334;-59
2021/03/22 14:11:18;;;;;;;7.75;2.15;;;11.10;54.00;;;;;;5127023;27;27343;-59
2021/03/22 14:14:03;;;;;;;6.03;2.70;;;11.00;54.10;;;;;;5126200;27;27589;-59
2021/03/22 14:16:47;;;;;;;8.13;2.60;;;10.90;54.60;;;;;;5127182;27;27356;-57
2021/03/22 14:19:32;;;;;;;6.28;2.47;;;10.80;54.80;;;;;;5126819;27;27466;-60
2021/03/22 14:22:17;;;;;;;7.05;2.50;;;10.70;54.90;;;;;;5127058;27;27377;-60
2021/03/22 14:25:02;;;;;;;9.77;2.92;;;10.60;55.00;;;;;;5127087;27;27414;-59
2021/03/22 14:27:46;;;;;;;8.38;2.60;;;10.50;55.20;;;;;;5111361;27;27359;-60
2021/03/22 14:30:33;;;;;;;5.97;2.28;;;10.40;55.30;;;;;;5126866;27;27374;-60
2021/03/22 14:33:21;;;;;;;11.25;2.50;;;10.40;55.80;;;;;;5126424;27;27884;-60
2021/03/22 14:36:06;;;;;;;7.47;2.70;;;10.20;55.50;;;;;;5126100;27;27466;-59
2021/03/22 14:38:52;;;;;;;5.93;2.47;;;10.20;55.70;;;;;;5126696;27;27404;-59
2021/03/22 14:41:37;;;;;;;7.55;2.50;;;10.00;55.90;;;;;;5126669;27;27497;-60
2021/03/22 14:44:21;;;;;;;8.50;2.75;;;9.90;56.30;;;;;;5126176;27;28063;-59
2021/03/22 14:47:06;;;;;;;12.57;2.58;;;9.80;56.70;;;;;;5126261;27;27538;-59
2021/03/22 14:49:51;;;;;;;7.53;2.30;;;9.70;57.00;;;;;;5126276;27;27468;-60
2021/03/22 14:52:36;;;;;;;6.70;2.83;;;9.60;57.20;;;;;;5126376;27;27326;-60
2021/03/22 14:55:23;;;;;;;5.97;2.67;;;9.50;57.30;;;;;;5126118;27;28033;-59
2021/03/22 14:58:07;;;;;;;7.30;2.92;;;9.40;57.50;;;;;;5126278;27;27473;-60
2021/03/22 15:00:52;;;;;;;9.02;2.50;;;9.40;57.80;;;;;;5126401;27;27445;-59
2021/03/22 15:03:36;;;;;;;4.85;2.28;;;9.30;57.80;;;;;;5126132;27;27473;-60
2021/03/22 15:06:21;;;;;;;6.53;2.30;;;9.30;57.80;;;;;;5126239;27;27912;-59
2021/03/22 15:09:06;;;;;;;9.00;2.75;;;9.30;57.80;;;;;;5125481;27;27596;-59
2021/03/22 15:11:51;;;;;;;4.53;2.38;;;9.30;57.80;;;;;;5125943;27;27443;-58
2021/03/22 15:14:35;;;;;;;4.45;2.75;;;9.30;57.80;;;;;;5106848;27;27393;-59
2021/03/22 15:17:20;;;;;;;6.53;2.22;;;9.30;58.50;;;;;;5126023;27;27379;-59
2021/03/22 15:20:07;;;;;;;4.72;3.08;;;9.30;58.20;;;;;;5107180;27;27525;-59
2021/03/22 15:22:52;;;;;;;8.23;2.60;;;9.30;57.70;;;;;;5125773;27;27469;-59
2021/03/22 15:25:39;;;;;;;6.55;2.60;;;9.30;57.70;;;;;;5124993;27;27381;-59
2021/03/22 15:28:29;;;;;;;6.93;3.22;;;9.20;57.60;;;;;;5125968;27;27429;-59
2021/03/22 15:31:14;;;;;;;4.47;3.15;;;9.20;57.90;;;;;;5125582;27;27340;-60
2021/03/22 15:33:58;;;;;;;8.98;3.50;;;9.20;58.00;;;;;;5125291;27;27366;-59
2021/03/22 15:36:43;;;;;;;7.00;3.15;;;9.20;58.10;;;;;;5125801;27;27339;-60
2021/03/22 15:39:27;;;;;;;8.45;3.30;;;9.10;58.20;;;;;;5125457;27;27374;-59
2021/03/22 15:42:12;;;;;;;7.15;3.35;;;9.10;58.20;;;;;;5125412;27;27414;-59
2021/03/22 15:44:56;;;;;;;9.68;3.83;;;9.10;58.20;;;;;;5125399;27;27350;-60
2021/03/22 15:47:41;;;;;;;9.05;4.35;;;9.10;58.20;;;;;;5125700;27;27398;-59
2021/03/22 15:50:26;;;;;;;12.30;5.65;;;9.10;58.30;;;;;;5125285;27;27374;-59
2021/03/22 15:53:11;;;;;;;15.00;6.50;;;9.00;58.40;;;;;;5125550;27;27391;-59
2021/03/22 15:55:56;;;;;;;9.43;6.90;;;9.00;58.50;;;;;;5125038;27;27417;-59
2021/03/22 15:58:41;;;;;;;14.60;6.50;;;9.00;58.70;;;;;;5125517;27;27382;-59
2021/03/22 16:01:26;;;;;;;12.93;6.03;;;8.90;58.80;;;;;;5122045;27;27373;-60
2021/03/22 16:04:11;;;;;;;18.33;7.22;;;8.90;58.90;;;;;;5109177;27;27506;-59
2021/03/22 16:06:55;;;;;;;13.75;5.78;;;8.90;59.00;;;;;;5125402;27;27423;-59
2021/03/22 16:09:40;;;;;;;16.15;5.95;;;8.80;59.00;;;;;;5125294;27;27419;-59
2021/03/22 16:12:24;;;;;;;10.95;5.50;;;8.70;59.10;;;;;;5122041;27;27455;-58
2021/03/22 16:15:10;;;;;;;11.75;5.43;;;8.70;59.30;;;;;;5106853;27;27745;-58
2021/03/22 16:17:55;;;;;;;15.95;5.32;;;8.70;59.40;;;;;;5124952;27;27457;-58
2021/03/22 16:20:42;;;;;;;9.13;5.25;;;8.60;59.50;;;;;;5125200;27;26914;-59
2021/03/22 16:23:29;;;;;;;9.88;5.53;;;8.60;59.60;;;;;;5125191;27;27895;-59
2021/03/22 16:26:13;;;;;;;10.48;4.72;;;8.60;59.70;;;;;;5125140;27;27394;-58
2021/03/22 16:28:58;;;;;;;9.82;4.60;;;8.50;59.90;;;;;;5124453;27;27405;-58
2021/03/22 16:31:43;;;;;;;11.18;4.30;;;8.40;59.90;;;;;;5124861;27;27375;-59
2021/03/22 16:34:31;;;;;;;10.00;4.40;;;8.40;60.00;;;;;;5124699;27;27329;-58
2021/03/22 16:37:16;;;;;;;8.10;4.18;;;8.30;60.30;;;;;;5126924;27;27316;-59
2021/03/22 16:40:01;;;;;;;9.57;3.95;;;8.20;60.40;;;;;;5128827;27;27371;-58
2021/03/22 16:42:46;;;;;;;11.85;4.00;;;8.10;60.40;;;;;;5128476;27;27385;-58
2021/03/22 16:45:33;;;;;;;11.30;3.72;;;8.10;60.70;;;;;;5128460;27;27445;-58
2021/03/22 16:48:18;;;;;;;9.27;3.60;;;8.00;61.00;;;;;;5128107;27;27422;-60
2021/03/22 16:51:04;;;;;;;8.98;3.10;;;8.00;61.20;;;;;;5128308;27;27457;-59
2021/03/22 16:53:49;;;;;;;7.20;3.35;;;7.90;61.30;;;;;;5128231;27;27396;-58
2021/03/22 16:56:33;;;;;;;6.68;3.38;;;7.80;61.40;;;;;;5109912;27;27832;-60
2021/03/22 16:59:18;;;;;;;5.95;3.00;;;7.80;61.60;;;;;;5128228;27;27447;-60
2021/03/22 17:02:03;;;;;;;5.60;3.13;;;7.80;61.80;;;;;;5128287;27;27367;-57
2021/03/22 17:04:48;;;;;;;6.40;3.20;;;7.70;61.90;;;;;;5124632;27;27411;-57
2021/03/22 17:07:36;;;;;;;5.47;3.28;;;7.60;62.00;;;;;;5124570;27;27453;-58
2021/03/22 17:10:20;;;;;;;7.38;3.25;;;7.60;62.20;;;;;;5127890;27;27462;-57
2021/03/22 17:13:05;;;;;;;6.95;3.40;;;7.50;62.40;;;;;;5112578;27;27489;-59
2021/03/22 17:15:50;;;;;;;5.70;3.47;;;7.50;62.60;;;;;;5127073;27;27461;-60
2021/03/22 17:18:35;;;;;;;4.38;2.85;;;7.40;63.00;;;;;;5109139;27;27865;-57
2021/03/22 17:21:22;;;;;;;7.25;3.20;;;7.30;63.00;;;;;;5124368;27;27453;-61
2021/03/22 17:24:07;;;;;;;5.25;2.85;;;7.30;64.10;;;;;;5127614;27;27636;-60
2021/03/22 17:26:51;;;;;;;8.75;3.38;;;7.30;63.40;;;;;;5127926;27;27364;-60
2021/03/22 17:29:36;;;;;;;8.23;2.90;;;7.20;63.60;;;;;;5127661;27;27469;-59
2021/03/22 17:32:20;;;;;;;4.90;2.78;;;7.20;63.90;;;;;;5127847;27;27486;-60
2021/03/22 17:35:06;;;;;;;5.80;2.75;;;7.10;64.00;;;;;;5127418;27;27451;-57
2021/03/22 17:37:52;;;;;;;6.30;3.08;;;7.00;64.10;;;;;;5108639;27;27466;-58
2021/03/22 17:40:38;;;;;;;6.28;3.25;;;7.00;65.00;;;;;;5127417;27;27410;-57
2021/03/22 17:43:23;;;;;;;7.55;3.33;;;6.90;64.40;;;;;;5127742;27;27460;-60
2021/03/22 17:46:08;;;;;;;6.15;3.13;;;6.90;64.50;;;;;;5112487;27;27416;-60
2021/03/22 17:48:54;;;;;;;6.38;2.80;;;6.90;64.60;;;;;;5126789;27;27343;-60
2021/03/22 17:51:39;;;;;;;7.82;3.50;;;6.80;64.70;;;;;;5127596;27;27367;-59
2021/03/22 17:54:24;;;;;;;8.60;3.15;;;6.80;64.80;;;;;;5127119;27;27458;-58
2021/03/22 17:57:08;;;;;;;6.25;3.08;;;6.70;64.80;;;;;;5127456;27;27371;-58
2021/03/22 17:59:53;;;;;;;7.18;3.13;;;6.70;65.10;;;;;;5111994;27;27373;-58
2021/03/22 18:02:38;;;;;;;6.47;3.10;;;6.70;65.20;;;;;;5126920;27;27361;-60
2021/03/22 18:05:25;;;;;;;6.75;3.22;;;6.70;65.40;;;;;;5113143;27;27347;-60
2021/03/22 18:08:10;;;;;;;5.20;3.25;;;6.60;65.40;;;;;;5116316;27;27374;-57
2021/03/22 18:10:55;;;;;;;5.07;2.92;;;6.60;65.60;;;;;;5117273;27;27407;-59
2021/03/22 18:13:41;;;;;;;6.63;3.28;;;6.60;65.70;;;;;;5131368;27;27405;-59
2021/03/22 18:16:26;;;;;;;4.95;2.80;;;6.60;65.80;;;;;;5129666;27;27005;-59
2021/03/22 18:19:11;;;;;;;8.60;3.83;;;6.50;65.70;;;;;;5130936;27;27669;-59
2021/03/22 18:21:56;;;;;;;11.02;3.40;;;6.50;65.70;;;;;;5115756;27;27429;-59
2021/03/22 18:24:41;;;;;;;9.93;2.88;;;6.50;65.80;;;;;;5131627;27;27320;-60
2021/03/22 18:27:26;;;;;;;7.78;3.10;;;6.50;66.10;;;;;;5130994;27;27394;-59
2021/03/22 18:30:12;;;;;;;6.55;3.17;;;6.40;66.00;;;;;;5131396;27;27397;-60
2021/03/22 18:32:57;;;;;;;5.07;3.00;;;6.40;66.10;;;;;;5113646;27;27438;-60
2021/03/22 18:35:45;;;;;;;5.93;3.28;;;6.40;66.20;;;;;;5132026;27;27390;-59
2021/03/22 18:38:30;;;;;;;4.85;2.90;;;6.40;66.40;;;;;;5111647;27;27473;-60
2021/03/22 18:41:14;;;;;;;9.88;3.53;;;6.40;66.40;;;;;;5126929;27;27460;-58
2021/03/22 18:43:59;;;;;;;6.15;3.50;;;6.30;66.40;;;;;;5126293;27;27452;-59
2021/03/22 18:46:45;;;;;;;6.88;3.70;;;6.30;66.40;;;;;;5126677;27;27474;-59
2021/03/22 18:49:29;;;;;;;7.25;3.90;;;6.30;66.40;;;;;;5126263;27;27394;-59
2021/03/22 18:52:14;;;;;;;8.25;3.17;;;6.30;66.50;;;;;;5126609;27;27411;-59
2021/03/22 18:54:58;;;;;;;4.72;2.83;;;6.30;66.60;;;;;;5126167;27;27327;-59
2021/03/22 18:57:43;;;;;;;10.70;3.38;;;6.30;66.60;;;;;;5110978;27;27472;-58
2021/03/22 19:00:30;;;;;;;5.25;2.95;;;6.30;66.70;;;;;;5125008;27;27478;-55
2021/03/22 19:03:18;;;;;;;7.13;3.58;;;6.20;66.60;;;;;;5126380;27;27483;-59
2021/03/22 19:06:03;;;;;;;8.48;3.60;;;6.20;66.70;;;;;;5111169;27;27409;-58
2021/03/22 19:08:48;;;;;;;7.75;3.17;;;6.20;66.60;;;;;;5111280;27;27325;-59
2021/03/22 19:11:35;;;;;;;8.07;3.80;;;6.20;66.80;;;;;;5125888;27;27432;-59
2021/03/22 19:14:19;;;;;;;5.47;3.72;;;6.20;66.80;;;;;;5126107;27;27359;-58
2021/03/22 19:17:04;;;;;;;8.32;3.20;;;6.10;66.90;;;;;;5126108;27;27320;-58
2021/03/22 19:19:49;;;;;;;8.73;3.40;;;6.10;66.80;;;;;;5126054;27;27367;-58
2021/03/22 19:22:34;;;;;;;6.82;3.63;;;6.10;66.90;;;;;;5125828;27;27452;-59
2021/03/22 19:25:19;;;;;;;6.65;3.33;;;6.10;67.10;;;;;;5126026;27;27402;-60
2021/03/22 19:28:04;;;;;;;7.88;3.25;;;6.10;67.00;;;;;;5092981;27;27388;-58
2021/03/22 19:30:49;;;;;;;5.93;3.72;;;6.10;67.10;;;;;;5125661;27;27389;-59
2021/03/22 19:33:35;;;;;;;10.23;3.53;;;6.10;67.20;;;;;;5125933;27;27384;-59
2021/03/22 19:36:20;;;;;;;10.05;3.67;;;6.00;67.30;;;;;;5107200;27;27332;-59
2021/03/22 19:39:05;;;;;;;5.00;3.20;;;6.00;67.30;;;;;;5125174;27;27338;-57
2021/03/22 19:41:49;;;;;;;6.18;4.10;;;6.00;67.40;;;;;;5125774;27;27390;-59
2021/03/22 19:44:34;;;;;;;9.48;3.75;;;6.00;67.50;;;;;;5125479;27;27371;-58
2021/03/22 19:47:18;;;;;;;7.07;3.35;;;6.00;67.60;;;;;;5125460;27;27360;-58
2021/03/22 19:50:09;;;;;;;9.00;3.33;;;6.00;67.60;;;;;;5125754;27;27392;-57
2021/03/22 19:52:54;;;;;;;8.38;3.60;;;6.00;67.70;;;;;;5125638;27;28169;-58
2021/03/22 19:55:38;;;;;;;6.70;3.90;;;6.00;67.80;;;;;;5125165;27;27540;-58
2021/03/22 19:58:23;;;;;;;8.27;3.75;;;5.90;67.80;;;;;;5125667;27;27466;-58
2021/03/22 20:01:08;;;;;;;10.52;5.25;;;5.90;67.80;;;;;;5125406;27;27458;-58
2021/03/22 20:03:52;;;;;;;8.63;5.28;;;5.90;67.90;;;;;;5125167;27;27422;-58
2021/03/22 20:06:37;;;;;;;7.95;5.32;;;5.90;68.00;;;;;;5125110;27;27516;-57
2021/03/22 20:09:21;;;;;;;14.40;5.68;;;5.90;68.00;;;;;;5125314;27;27660;-58
2021/03/22 20:12:07;;;;;;;12.50;5.80;;;5.90;68.00;;;;;;5125094;27;27590;-58
2021/03/22 20:14:52;;;;;;;9.73;5.65;;;5.90;68.30;;;;;;5124272;27;27980;-58
2021/03/22 20:17:37;;;;;;;9.50;5.57;;;5.80;68.10;;;;;;5106777;27;27419;-58
